Portada
METAR-TAF:

METAR-TAF

Aeropuertos :

Aeropuerto de Umiujaq

Umiujaq, Quebec, Canadá

latitud: 56-32N, longitud: 076-31W, altitud: 71 m

Observación

El informe se hizo hace 25 minutos, a las 13:00 UTC
Viento 7 kt del este-sureste
Temperatura -11°C
Humedad 78%
Presión 1006 hPa
Visibilidad: 22.5 km
Nubes dispersas a una altura de 3400 ft
Cielo nuboso a una altura de 6600 ft
Cielo nuboso a una altura de 30000 ft
chaparrones de nieve

METAR: CYMU 141300Z 11007KT 14SM -SHSN SCT034 BKN066 BKN300 M11/M14 A2972 RMK SC4AC1CS2 W 6 SH SLP073

Hora: 08:25 (13:25 UTC)


TAF: falta

Observaciones y pronósticos meteorológicos de más de 4000 aeropuertos (mensajes METAR y TAF).

Los puntos amarillos y rojos representan las estaciones disponibles.

Ponga el ratón en el punto deseado para ver el nombre de la estación.

Haga clic para ver las observaciones y los pronósticos meteorológicos.

Para cambiar el mapa : haga clic en los botones verdes con una cruz de color negro para hacer un zoom, en el botón verde con un guión para alejar o en las flechas verdes para mapas adyacentes.


METAR-TAF: